createdAt,value
2017-11-29T00:01:13.742Z,5.60
2017-11-29T00:03:41.984Z,5.97
2017-11-29T00:06:09.452Z,6.95
2017-11-29T00:08:36.934Z,5.70
2017-11-29T00:11:05.159Z,7.53
2017-11-29T00:13:32.762Z,5.27
2017-11-29T00:16:00.915Z,5.40
2017-11-29T00:18:28.435Z,6.03
2017-11-29T00:20:55.898Z,6.03
2017-11-29T00:23:23.370Z,6.37
2017-11-29T00:25:50.857Z,6.47
2017-11-29T00:28:18.320Z,5.70
2017-11-29T00:30:45.797Z,5.20
2017-11-29T00:33:14.045Z,5.73
2017-11-29T00:35:41.510Z,5.30
2017-11-29T00:38:11.406Z,6.03
2017-11-29T00:40:38.898Z,5.57
2017-11-29T00:43:13.465Z,5.77
2017-11-29T00:45:40.949Z,5.50
2017-11-29T00:48:08.421Z,5.80
2017-11-29T00:50:36.666Z,6.33
2017-11-29T00:53:04.150Z,6.77
2017-11-29T00:55:31.629Z,5.47
2017-11-29T00:57:59.866Z,5.43
2017-11-29T01:00:27.381Z,5.80
2017-11-29T01:02:54.844Z,5.70
2017-11-29T01:05:22.763Z,5.40
2017-11-29T01:07:50.229Z,5.17
2017-11-29T01:10:17.716Z,5.07
2017-11-29T01:12:45.956Z,5.60
2017-11-29T01:15:13.509Z,4.77
2017-11-29T01:17:41.207Z,5.40
2017-11-29T01:20:09.445Z,7.07
2017-11-29T01:22:37.118Z,4.20
2017-11-29T01:25:04.601Z,3.53
2017-11-29T01:27:32.836Z,4.60
2017-11-29T01:30:00.326Z,3.80
2017-11-29T01:32:28.572Z,3.93
2017-11-29T01:34:56.057Z,3.87
2017-11-29T01:37:23.525Z,3.37
2017-11-29T01:39:51.810Z,3.77
2017-11-29T01:42:19.283Z,5.57
2017-11-29T01:44:46.774Z,6.82
2017-11-29T01:47:14.250Z,4.87
2017-11-29T01:49:41.735Z,17.40
2017-11-29T01:52:09.990Z,6.90
2017-11-29T01:54:37.458Z,4.20
2017-11-29T01:57:05.717Z,3.33
2017-11-29T01:59:33.950Z,2.83
2017-11-29T02:02:01.434Z,2.90
2017-11-29T02:04:29.023Z,2.50
2017-11-29T02:06:57.290Z,2.25
2017-11-29T02:09:24.762Z,2.40
2017-11-29T02:11:53.014Z,2.30
2017-11-29T02:14:20.493Z,2.60
2017-11-29T02:16:48.753Z,3.10
2017-11-29T02:19:17.722Z,2.67
2017-11-29T02:21:45.243Z,2.53
2017-11-29T02:24:13.465Z,2.17
2017-11-29T02:26:40.961Z,2.60
2017-11-29T02:29:09.204Z,2.07
2017-11-29T02:31:36.677Z,2.30
2017-11-29T02:34:04.167Z,2.50
2017-11-29T02:36:31.661Z,2.40
2017-11-29T02:38:59.137Z,2.37
2017-11-29T02:41:38.705Z,2.53
2017-11-29T02:44:06.958Z,2.50
2017-11-29T02:46:37.574Z,2.10
2017-11-29T02:49:05.052Z,2.57
2017-11-29T02:51:32.801Z,2.87
2017-11-29T02:54:00.288Z,2.90
2017-11-29T02:56:27.789Z,2.60
2017-11-29T02:58:55.271Z,2.90
2017-11-29T03:01:22.758Z,3.27
2017-11-29T03:03:50.227Z,3.10
2017-11-29T03:06:18.717Z,3.13
2017-11-29T03:08:46.966Z,3.27
2017-11-29T03:11:14.511Z,5.25
2017-11-29T03:13:42.003Z,4.83
2017-11-29T03:16:10.255Z,4.43
2017-11-29T03:18:37.751Z,3.23
2017-11-29T03:21:05.226Z,4.50
2017-11-29T03:23:32.707Z,3.60
2017-11-29T03:26:00.174Z,7.10
2017-11-29T03:28:27.654Z,3.90
2017-11-29T03:30:55.217Z,4.60
2017-11-29T03:33:23.485Z,3.40
2017-11-29T03:35:51.723Z,3.50
2017-11-29T03:38:19.217Z,3.53
2017-11-29T03:40:46.682Z,4.07
2017-11-29T03:43:14.173Z,4.43
2017-11-29T03:45:41.641Z,4.93
2017-11-29T03:48:09.125Z,2.90
2017-11-29T03:50:37.047Z,2.03
2017-11-29T03:53:04.529Z,1.80
2017-11-29T03:55:32.010Z,1.80
2017-11-29T03:57:59.494Z,1.30
2017-11-29T04:00:26.967Z,1.83
2017-11-29T04:02:55.229Z,1.67
2017-11-29T04:05:22.751Z,4.20
2017-11-29T04:07:50.216Z,1.50
2017-11-29T04:10:17.699Z,1.30
2017-11-29T04:12:45.175Z,1.77
2017-11-29T04:15:13.422Z,1.60
2017-11-29T04:17:41.702Z,1.40
2017-11-29T04:20:09.172Z,1.40
2017-11-29T04:22:37.418Z,1.50
2017-11-29T04:25:04.922Z,1.50
2017-11-29T04:27:33.192Z,1.90
2017-11-29T04:30:08.494Z,2.07
2017-11-29T04:32:35.965Z,1.90
2017-11-29T04:35:03.458Z,2.10
2017-11-29T04:37:31.804Z,1.83
2017-11-29T04:39:59.321Z,2.15
2017-11-29T04:42:26.787Z,2.20
2017-11-29T04:44:54.288Z,1.83
2017-11-29T04:47:21.767Z,3.70
2017-11-29T04:49:50.013Z,1.97
2017-11-29T04:52:17.495Z,1.80
2017-11-29T04:54:45.755Z,2.27
2017-11-29T04:57:13.228Z,1.97
2017-11-29T04:59:41.482Z,2.50
2017-11-29T05:02:08.962Z,2.40
2017-11-29T05:04:36.465Z,2.23
2017-11-29T05:07:03.960Z,2.20
2017-11-29T05:09:31.463Z,2.57
2017-11-29T05:11:58.938Z,2.70
2017-11-29T05:14:26.422Z,2.27
2017-11-29T05:16:55.402Z,1.90
2017-11-29T05:19:22.885Z,2.50
2017-11-29T05:21:50.383Z,2.10
2017-11-29T05:24:17.863Z,2.93
2017-11-29T05:26:45.339Z,3.40
2017-11-29T05:29:12.835Z,3.00
2017-11-29T05:31:41.081Z,5.37
2017-11-29T05:34:08.574Z,3.78
2017-11-29T05:36:36.816Z,3.40
2017-11-29T05:39:04.302Z,7.37
2017-11-29T05:41:32.554Z,3.60
2017-11-29T05:44:00.040Z,4.07
2017-11-29T05:46:28.291Z,3.37
2017-11-29T05:48:55.863Z,4.03
2017-11-29T05:51:24.139Z,3.43
2017-11-29T05:53:52.428Z,4.20
2017-11-29T05:56:19.927Z,4.20
2017-11-29T05:58:47.413Z,4.07
2017-11-29T06:01:14.889Z,4.60
2017-11-29T06:03:43.122Z,5.03
2017-11-29T06:06:10.615Z,5.00
2017-11-29T06:08:38.121Z,4.93
2017-11-29T06:11:05.597Z,4.77
2017-11-29T06:13:33.092Z,4.25
2017-11-29T06:16:01.370Z,3.50
2017-11-29T06:18:28.864Z,4.37
2017-11-29T06:20:56.396Z,3.53
2017-11-29T06:23:24.644Z,4.33
2017-11-29T06:25:52.141Z,4.13
2017-11-29T06:28:20.380Z,3.90
2017-11-29T06:30:49.075Z,3.97
2017-11-29T06:33:16.558Z,3.80
2017-11-29T06:35:44.807Z,4.47
2017-11-29T06:38:12.289Z,4.70
2017-11-29T06:40:40.540Z,5.10
2017-11-29T06:43:08.016Z,4.80
2017-11-29T06:45:36.285Z,4.90
2017-11-29T06:48:04.529Z,5.50
2017-11-29T06:50:32.002Z,5.73
2017-11-29T06:52:59.470Z,6.57
2017-11-29T06:55:27.030Z,5.63
2017-11-29T06:57:54.501Z,6.00
2017-11-29T07:00:22.747Z,5.30
2017-11-29T07:02:50.227Z,5.93
2017-11-29T07:05:18.506Z,6.43
2017-11-29T07:07:46.764Z,6.90
2017-11-29T07:10:14.218Z,5.57
2017-11-29T07:12:41.716Z,5.70
2017-11-29T07:15:09.187Z,4.63
2017-11-29T07:17:36.675Z,6.00
2017-11-29T07:20:04.143Z,5.60
2017-11-29T07:22:31.628Z,5.03
2017-11-29T07:24:59.869Z,5.93
2017-11-29T07:27:27.363Z,4.93
2017-11-29T07:29:55.602Z,5.90
2017-11-29T07:32:23.083Z,9.53
2017-11-29T07:34:50.563Z,7.03
2017-11-29T07:37:18.851Z,9.87
2017-11-29T07:39:46.322Z,9.30
2017-11-29T07:42:13.823Z,10.47
2017-11-29T07:44:41.294Z,7.70
2017-11-29T07:47:08.766Z,7.47
2017-11-29T07:49:36.999Z,8.20
2017-11-29T07:52:04.532Z,8.30
2017-11-29T07:54:31.989Z,6.40
2017-11-29T07:56:59.494Z,6.57
2017-11-29T07:59:26.969Z,6.27
2017-11-29T08:01:55.221Z,4.17
2017-11-29T08:04:22.710Z,3.63
2017-11-29T08:06:50.209Z,6.10
2017-11-29T08:09:17.680Z,4.43
2017-11-29T08:11:45.148Z,4.20
2017-11-29T08:14:12.642Z,3.70
2017-11-29T08:16:40.881Z,4.00
2017-11-29T08:19:08.397Z,4.77
2017-11-29T08:21:35.883Z,3.93
2017-11-29T08:24:03.345Z,4.37
2017-11-29T08:26:30.815Z,3.73
2017-11-29T08:28:58.314Z,3.53
2017-11-29T08:31:25.785Z,4.78
2017-11-29T08:33:53.271Z,4.97
2017-11-29T08:36:20.737Z,5.80
2017-11-29T08:38:48.230Z,4.97
2017-11-29T08:41:16.464Z,5.47
2017-11-29T08:43:43.952Z,6.30
2017-11-29T08:46:11.423Z,4.90
2017-11-29T08:48:39.685Z,5.43
2017-11-29T08:51:07.939Z,4.67
2017-11-29T08:53:35.438Z,5.70
2017-11-29T08:56:03.721Z,5.07
2017-11-29T08:58:31.206Z,10.33
2017-11-29T09:00:58.683Z,5.13
2017-11-29T09:03:26.170Z,6.50
2017-11-29T09:05:53.742Z,4.93
2017-11-29T09:08:22.011Z,7.20
2017-11-29T09:10:50.293Z,5.20
2017-11-29T09:13:18.646Z,17.73
2017-11-29T09:15:47.626Z,7.13
2017-11-29T09:18:15.124Z,6.97
2017-11-29T09:20:43.382Z,5.73
2017-11-29T09:23:10.857Z,5.37
2017-11-29T09:25:39.114Z,6.03
2017-11-29T09:28:07.359Z,4.90
2017-11-29T09:30:41.319Z,10.83
2017-11-29T09:33:09.548Z,6.33
2017-11-29T09:35:37.048Z,8.48
2017-11-29T09:38:05.296Z,8.17
2017-11-29T09:40:32.808Z,6.07
2017-11-29T09:43:00.294Z,4.87
2017-11-29T09:45:27.767Z,6.50
2017-11-29T09:47:55.252Z,7.00
2017-11-29T09:50:22.748Z,6.50
2017-11-29T09:52:50.226Z,6.83
2017-11-29T09:55:17.730Z,6.50
2017-11-29T09:57:45.239Z,5.55
2017-11-29T10:00:12.755Z,8.10
2017-11-29T10:02:40.993Z,8.03
2017-11-29T10:05:08.492Z,6.27
2017-11-29T10:07:36.753Z,5.93
2017-11-29T10:10:05.042Z,6.10
2017-11-29T10:12:39.751Z,11.50
2017-11-29T10:15:08.002Z,6.83
2017-11-29T10:17:35.501Z,7.43
2017-11-29T10:20:03.743Z,5.67
2017-11-29T10:22:31.230Z,7.00
2017-11-29T10:24:59.493Z,5.80
2017-11-29T10:27:26.979Z,6.83
2017-11-29T10:29:55.256Z,7.53
2017-11-29T10:32:22.756Z,5.80
2017-11-29T10:34:57.053Z,4.90
2017-11-29T10:37:24.529Z,8.77
2017-11-29T10:39:52.036Z,5.37
2017-11-29T10:42:20.279Z,7.03
2017-11-29T10:44:47.754Z,6.03
2017-11-29T10:47:15.247Z,8.60
2017-11-29T10:49:42.758Z,9.67
2017-11-29T10:52:10.244Z,5.43
2017-11-29T10:54:38.491Z,5.80
2017-11-29T10:57:05.973Z,6.20
2017-11-29T10:59:34.244Z,7.00
2017-11-29T11:02:01.759Z,5.83
2017-11-29T11:04:29.242Z,3.63
2017-11-29T11:06:56.755Z,2.93
2017-11-29T11:09:24.222Z,2.87
2017-11-29T11:11:51.705Z,3.17
2017-11-29T11:14:19.206Z,6.53
2017-11-29T11:16:46.695Z,6.67
2017-11-29T11:19:14.177Z,5.63
2017-11-29T11:21:41.659Z,6.17
2017-11-29T11:24:09.915Z,8.43
2017-11-29T11:26:38.104Z,9.07
2017-11-29T11:29:05.582Z,8.17
2017-11-29T11:31:33.859Z,6.80
2017-11-29T11:34:02.103Z,7.17
2017-11-29T11:36:29.600Z,4.20
2017-11-29T11:38:57.842Z,6.30
2017-11-29T11:41:26.112Z,3.03
2017-11-29T11:43:53.600Z,2.70
2017-11-29T11:46:21.871Z,4.20
2017-11-29T11:48:50.108Z,5.07
2017-11-29T11:51:17.616Z,3.80
2017-11-29T11:53:45.894Z,16.30
2017-11-29T11:56:14.686Z,4.00
2017-11-29T11:58:42.927Z,4.90
2017-11-29T12:01:10.420Z,3.40
2017-11-29T12:03:38.672Z,4.30
2017-11-29T12:06:06.163Z,4.20
2017-11-29T12:08:33.652Z,8.93
2017-11-29T12:11:01.170Z,6.27
2017-11-29T12:13:29.431Z,5.50
2017-11-29T12:15:57.675Z,4.60
2017-11-29T12:18:25.168Z,5.30
2017-11-29T12:20:53.417Z,3.80
2017-11-29T12:23:20.898Z,4.40
2017-11-29T12:25:49.160Z,5.57
2017-11-29T12:28:16.670Z,4.87
2017-11-29T12:30:44.128Z,9.50
2017-11-29T12:33:11.661Z,8.67
2017-11-29T12:35:39.901Z,7.50
2017-11-29T12:38:07.403Z,5.93
2017-11-29T12:40:35.778Z,5.40
2017-11-29T12:43:03.267Z,5.13
2017-11-29T12:45:30.749Z,5.50
2017-11-29T12:48:10.932Z,3.30
2017-11-29T12:50:52.091Z,25.10
2017-11-29T12:53:19.594Z,6.03
2017-11-29T12:55:47.074Z,15.43
2017-11-29T12:58:14.564Z,5.17
2017-11-29T13:00:42.960Z,5.67
2017-11-29T13:03:10.465Z,5.83
2017-11-29T13:05:37.926Z,6.70
2017-11-29T13:08:05.418Z,5.60
2017-11-29T13:10:32.881Z,4.27
2017-11-29T13:13:00.358Z,3.50
2017-11-29T13:15:28.615Z,5.50
2017-11-29T13:17:56.102Z,5.43
2017-11-29T13:20:24.335Z,3.37
2017-11-29T13:22:51.810Z,7.17
2017-11-29T13:25:19.295Z,4.70
2017-11-29T13:27:46.788Z,4.17
2017-11-29T13:30:14.309Z,3.23
2017-11-29T13:32:42.566Z,3.50
2017-11-29T13:35:10.839Z,3.80
2017-11-29T13:37:39.122Z,3.67
2017-11-29T13:40:07.363Z,5.07
2017-11-29T13:42:34.835Z,5.17
2017-11-29T13:45:02.412Z,4.53
2017-11-29T13:47:30.661Z,5.40
2017-11-29T13:49:58.137Z,6.93
2017-11-29T13:52:25.614Z,5.87
2017-11-29T13:54:53.872Z,7.33
2017-11-29T13:57:22.146Z,9.27
2017-11-29T13:59:50.422Z,6.33
2017-11-29T14:02:18.658Z,5.10
2017-11-29T14:04:46.136Z,4.30
2017-11-29T14:07:15.553Z,4.10
2017-11-29T14:09:44.725Z,4.47
2017-11-29T14:12:12.191Z,8.20
2017-11-29T14:14:39.673Z,12.27
2017-11-29T14:17:07.149Z,4.50
2017-11-29T14:19:35.398Z,4.00
2017-11-29T14:22:02.897Z,8.27
2017-11-29T14:24:30.390Z,4.57
2017-11-29T14:26:57.885Z,4.53
2017-11-29T14:29:33.201Z,4.75
2017-11-29T14:32:00.674Z,9.20
2017-11-29T14:34:28.165Z,16.13
2017-11-29T14:36:56.411Z,16.37
2017-11-29T14:39:23.932Z,26.10
2017-11-29T14:41:51.415Z,16.20
2017-11-29T14:44:18.900Z,8.50
2017-11-29T14:46:47.130Z,8.27
2017-11-29T14:49:14.626Z,7.13
2017-11-29T14:51:42.111Z,7.63
2017-11-29T14:54:09.605Z,4.63
2017-11-29T14:56:37.078Z,4.10
2017-11-29T14:59:04.576Z,4.30
2017-11-29T15:01:32.843Z,5.07
2017-11-29T15:04:01.096Z,4.83
2017-11-29T15:06:28.573Z,4.73
2017-11-29T15:08:56.058Z,12.80
2017-11-29T15:11:23.550Z,30.23
2017-11-29T15:13:51.041Z,21.03
2017-11-29T15:16:18.543Z,30.50
2017-11-29T15:18:46.034Z,21.40
2017-11-29T15:21:13.523Z,14.97
2017-11-29T15:23:41.764Z,15.63
2017-11-29T15:26:09.264Z,8.70
2017-11-29T15:28:37.551Z,7.67
2017-11-29T15:31:05.799Z,5.40
2017-11-29T15:33:34.868Z,10.53
2017-11-29T15:36:02.349Z,11.20
2017-11-29T15:38:29.829Z,9.03
2017-11-29T15:40:58.083Z,4.47
2017-11-29T15:43:25.561Z,5.30
2017-11-29T15:45:53.816Z,4.30
2017-11-29T15:48:21.290Z,5.50
2017-11-29T15:50:49.557Z,4.33
2017-11-29T15:53:17.020Z,7.83
2017-11-29T15:55:45.271Z,7.33
2017-11-29T15:58:12.754Z,6.83
2017-11-29T16:00:41.017Z,6.00
2017-11-29T16:03:08.506Z,7.00
2017-11-29T16:05:35.994Z,12.00
2017-11-29T16:08:03.485Z,11.38
2017-11-29T16:10:31.015Z,12.37
2017-11-29T16:12:58.508Z,14.50
2017-11-29T16:15:26.017Z,22.23
2017-11-29T16:17:53.510Z,16.20
2017-11-29T16:20:21.002Z,16.43
2017-11-29T16:22:49.284Z,12.00
2017-11-29T16:25:17.535Z,8.60
2017-11-29T16:27:45.013Z,6.83
2017-11-29T16:30:13.260Z,10.48
2017-11-29T16:32:40.754Z,15.03
2017-11-29T16:35:08.240Z,10.27
2017-11-29T16:37:35.745Z,16.87
2017-11-29T16:40:03.247Z,32.23
2017-11-29T16:45:24.317Z,5.53
2017-11-29T16:47:51.822Z,7.00
2017-11-29T16:50:19.290Z,8.57
2017-11-29T16:52:46.785Z,7.20
2017-11-29T16:55:14.249Z,8.07
2017-11-29T16:57:41.752Z,5.67
2017-11-29T17:00:09.244Z,5.13
2017-11-29T17:02:36.763Z,5.97
2017-11-29T17:05:04.238Z,6.50
2017-11-29T17:07:31.711Z,8.13
2017-11-29T17:09:59.194Z,6.13
2017-11-29T17:12:26.691Z,6.60
2017-11-29T17:14:54.966Z,7.07
2017-11-29T17:17:23.217Z,5.43
2017-11-29T17:19:50.690Z,7.20
2017-11-29T17:22:18.950Z,26.23
2017-11-29T17:24:46.445Z,25.13
2017-11-29T17:27:13.956Z,22.90
2017-11-29T17:29:53.326Z,24.37
2017-11-29T17:32:21.681Z,15.07
2017-11-29T17:34:49.166Z,20.67
2017-11-29T17:37:17.417Z,17.27
2017-11-29T17:39:45.671Z,23.48
2017-11-29T17:42:13.930Z,30.53
2017-11-29T17:44:41.403Z,21.50
2017-11-29T17:47:08.913Z,12.03
2017-11-29T17:49:36.398Z,13.93
2017-11-29T17:52:04.641Z,9.70
2017-11-29T17:54:32.893Z,13.40
2017-11-29T17:57:00.371Z,9.70
2017-11-29T17:59:28.646Z,8.87
2017-11-29T18:01:56.881Z,10.20
2017-11-29T18:04:24.377Z,9.20
2017-11-29T18:06:52.643Z,8.70
2017-11-29T18:09:20.894Z,8.27
2017-11-29T18:11:48.414Z,10.43
2017-11-29T18:14:16.963Z,11.07
2017-11-29T18:16:45.202Z,8.63
2017-11-29T18:19:12.687Z,5.70
2017-11-29T18:21:40.164Z,6.10
2017-11-29T18:24:09.438Z,6.13
2017-11-29T18:26:38.420Z,4.30
2017-11-29T18:29:05.919Z,5.97
2017-11-29T18:31:34.162Z,4.63
2017-11-29T18:34:01.670Z,12.70
2017-11-29T18:36:29.196Z,13.60
2017-11-29T18:38:57.445Z,14.77
2017-11-29T18:41:24.934Z,13.47
2017-11-29T18:43:53.188Z,12.10
2017-11-29T18:46:20.672Z,13.37
2017-11-29T18:48:48.927Z,10.73
2017-11-29T18:51:16.422Z,12.50
2017-11-29T18:53:43.917Z,8.80
2017-11-29T18:56:11.388Z,8.70
2017-11-29T18:58:38.875Z,7.10
2017-11-29T19:01:07.117Z,8.02
2017-11-29T19:03:34.628Z,10.37
2017-11-29T19:06:02.123Z,9.77
2017-11-29T19:08:29.634Z,13.10
2017-11-29T19:10:58.806Z,15.17
2017-11-29T19:13:27.221Z,17.67
2017-11-29T19:15:55.003Z,17.00
2017-11-29T19:18:22.501Z,17.37
2017-11-29T19:20:49.992Z,19.97
2017-11-29T19:23:18.243Z,17.70
2017-11-29T19:25:45.735Z,17.17
2017-11-29T19:28:13.216Z,18.87
2017-11-29T19:30:40.712Z,15.10
2017-11-29T19:33:08.194Z,16.97
2017-11-29T19:35:36.450Z,21.33
2017-11-29T19:38:03.955Z,22.33
2017-11-29T19:40:31.454Z,22.30
2017-11-29T19:42:58.939Z,20.93
2017-11-29T19:45:27.218Z,27.50
2017-11-29T19:47:55.501Z,23.83
2017-11-29T19:50:23.784Z,29.70
2017-11-29T19:52:52.024Z,8.40
2017-11-29T19:55:19.514Z,23.07
2017-11-29T19:57:47.758Z,32.17
2017-11-29T20:00:15.282Z,17.03
2017-11-29T20:02:42.761Z,12.53
2017-11-29T20:05:10.252Z,6.10
2017-11-29T20:07:37.730Z,5.60
2017-11-29T20:10:05.210Z,6.20
2017-11-29T20:12:32.709Z,8.90
2017-11-29T20:15:00.998Z,8.10
2017-11-29T20:17:28.471Z,9.93
2017-11-29T20:19:56.738Z,12.00
2017-11-29T20:22:25.008Z,25.77
2017-11-29T20:24:52.514Z,20.07
2017-11-29T20:27:20.006Z,11.07
2017-11-29T20:29:47.518Z,7.90
2017-11-29T20:32:15.002Z,8.07
2017-11-29T20:34:42.470Z,7.17
2017-11-29T20:37:09.958Z,12.27
2017-11-29T20:39:38.219Z,14.73
2017-11-29T20:42:05.728Z,9.93
2017-11-29T20:44:33.217Z,13.17
2017-11-29T20:47:00.722Z,14.30
2017-11-29T20:49:28.978Z,14.33
2017-11-29T20:51:57.284Z,11.70
2017-11-29T20:54:24.762Z,10.17
2017-11-29T20:56:52.260Z,10.67
2017-11-29T20:59:19.738Z,13.20
2017-11-29T21:01:47.993Z,9.73
2017-11-29T21:04:15.479Z,11.13
2017-11-29T21:06:43.746Z,10.00
2017-11-29T21:09:11.211Z,9.70
2017-11-29T21:11:39.512Z,9.20
2017-11-29T21:14:06.996Z,14.15
2017-11-29T21:16:34.489Z,14.60
2017-11-29T21:19:01.968Z,11.93
2017-11-29T21:21:29.476Z,10.70
2017-11-29T21:23:57.479Z,10.20
2017-11-29T21:26:24.966Z,12.93
2017-11-29T21:28:52.445Z,12.47
2017-11-29T21:31:19.936Z,13.90
2017-11-29T21:33:47.415Z,11.93
2017-11-29T21:36:15.669Z,12.47
2017-11-29T21:38:43.136Z,11.60
2017-11-29T21:41:10.610Z,9.60
2017-11-29T21:43:38.869Z,11.03
2017-11-29T21:46:07.129Z,12.37
2017-11-29T21:48:34.631Z,11.67
2017-11-29T21:51:02.890Z,12.07
2017-11-29T21:53:30.382Z,13.93
2017-11-29T21:55:57.877Z,11.80
2017-11-29T21:58:25.371Z,12.00
2017-11-29T22:00:53.639Z,12.73
2017-11-29T22:03:21.901Z,13.50
2017-11-29T22:05:49.382Z,14.00
2017-11-29T22:08:17.650Z,14.50
2017-11-29T22:10:45.896Z,12.33
2017-11-29T22:13:13.399Z,10.40
2017-11-29T22:15:41.696Z,10.50
2017-11-29T22:18:09.914Z,8.80
2017-11-29T22:20:37.389Z,8.73
2017-11-29T22:23:04.878Z,10.30
2017-11-29T22:25:32.374Z,9.10
2017-11-29T22:27:59.934Z,16.50
2017-11-29T22:30:27.404Z,11.15
2017-11-29T22:32:54.885Z,11.40
2017-11-29T22:35:23.226Z,10.53
2017-11-29T22:37:50.718Z,13.13
2017-11-29T22:40:18.960Z,11.43
2017-11-29T22:42:46.441Z,10.23
2017-11-29T22:45:13.919Z,9.30
2017-11-29T22:47:42.475Z,10.30
2017-11-29T22:50:09.958Z,12.07
2017-11-29T22:52:38.228Z,9.13
2017-11-29T22:55:06.465Z,11.97
2017-11-29T22:57:33.950Z,13.17
2017-11-29T23:00:01.426Z,11.00
2017-11-29T23:02:29.670Z,13.15
2017-11-29T23:04:57.161Z,12.60
2017-11-29T23:07:25.400Z,12.13
2017-11-29T23:09:52.897Z,13.17
2017-11-29T23:12:21.155Z,12.23
2017-11-29T23:14:48.644Z,11.90
2017-11-29T23:17:16.141Z,11.23
2017-11-29T23:19:43.632Z,10.07
2017-11-29T23:22:11.099Z,8.83
2017-11-29T23:24:39.354Z,10.73
2017-11-29T23:27:06.929Z,9.93
2017-11-29T23:29:34.433Z,10.07
2017-11-29T23:32:01.907Z,10.73
2017-11-29T23:34:29.401Z,9.83
2017-11-29T23:36:56.871Z,9.30
2017-11-29T23:39:25.130Z,10.90
2017-11-29T23:41:52.601Z,11.53
2017-11-29T23:44:20.855Z,10.30
2017-11-29T23:46:49.853Z,10.63
2017-11-29T23:49:18.845Z,10.60
2017-11-29T23:51:46.312Z,10.37
2017-11-29T23:54:14.572Z,13.30
2017-11-29T23:56:42.063Z,8.70
2017-11-29T23:59:10.319Z,12.20
